Time;durP1;ratioP1;P1;durP2;ratioP2;P2;SDS_P1;SDS_P2;PMS_P1;PMS_P2;Temp;Humidity;BMP_temperature;BMP_pressure;BME280_temperature;BME280_humidity;BME280_pressure;Samples;Min_cycle;Max_cycle;Signal;HPM_P1;HPM_P2
2023/03/29 00:00:08;;;;;;;3.65;0.90;;;;;;;6.21;100.00;99142.41;5032782;28;20025;-65
2023/03/29 00:02:34;;;;;;;1.65;1.00;;;;;;;6.20;100.00;99143.41;5032951;28;20487;-65
2023/03/29 00:05:03;;;;;;;4.15;1.60;;;;;;;6.11;100.00;99145.25;5035892;28;20028;-65
2023/03/29 00:07:32;;;;;;;5.60;1.35;;;;;;;6.09;100.00;99151.78;5026641;28;20075;-66
2023/03/29 00:10:01;;;;;;;3.75;1.38;;;;;;;6.11;100.00;99152.47;5030607;28;20033;-66
2023/03/29 00:12:26;;;;;;;;;;;;;;;6.11;100.00;99155.16;5033110;28;20025;-65
2023/03/29 00:14:52;;;;;;;2.13;1.45;;;;;;;6.13;100.00;99145.06;5034257;28;20385;-66
2023/03/29 00:17:18;;;;;;;1.95;1.35;;;;;;;6.07;100.00;99140.38;5027849;28;20053;-66
2023/03/29 00:19:44;;;;;;;6.20;1.23;;;;;;;6.07;100.00;99143.06;5045624;28;20025;-68
2023/03/29 00:22:11;;;;;;;2.53;1.15;;;;;;;6.04;100.00;99143.38;5034422;28;20059;-66
2023/03/29 00:24:36;;;;;;;1.63;1.20;;;;;;;6.02;100.00;99134.66;5033852;28;20123;-66
2023/03/29 00:27:02;;;;;;;2.47;1.30;;;;;;;6.02;100.00;99142.72;5032077;28;20551;-65
2023/03/29 00:29:27;;;;;;;2.58;1.40;;;;;;;6.04;100.00;99135.34;5030437;28;20808;-66
2023/03/29 00:31:54;;;;;;;2.55;1.30;;;;;;;6.03;100.00;99131.81;5027045;28;20461;-66
2023/03/29 00:34:21;;;;;;;3.65;1.70;;;;;;;6.03;100.00;99133.66;5034194;28;20115;-65
2023/03/29 00:36:49;;;;;;;4.78;1.58;;;;;;;6.07;100.00;99126.94;5035686;28;20021;-65
2023/03/29 00:39:16;;;;;;;2.93;1.43;;;;;;;6.02;100.00;99113.16;5032747;28;20514;-66
2023/03/29 00:41:44;;;;;;;2.55;1.38;;;;;;;5.99;100.00;99127.75;5038458;28;20699;-66
2023/03/29 00:44:47;;;;;;;2.05;1.30;;;;;;;6.01;100.00;99127.63;5056212;28;20361;-67
2023/03/29 00:47:13;;;;;;;2.92;1.40;;;;;;;6.00;100.00;99120.53;5030194;28;20048;-66
2023/03/29 00:49:39;;;;;;;3.13;1.40;;;;;;;5.99;100.00;99125.09;5034346;28;20455;-67
2023/03/29 00:52:05;;;;;;;3.30;1.60;;;;;;;5.98;100.00;99119.88;5029380;28;20035;-66
2023/03/29 00:54:31;;;;;;;1.98;1.23;;;;;;;5.96;100.00;99122.72;5045954;28;20037;-67
2023/03/29 00:57:02;;;;;;;2.75;1.20;;;;;;;5.98;100.00;99112.66;5034080;28;20017;-66
2023/03/29 00:59:31;;;;;;;2.42;1.30;;;;;;;5.95;100.00;99112.16;5034882;28;20475;-68
2023/03/29 01:02:00;;;;;;;2.28;1.10;;;;;;;5.93;100.00;99113.16;5034307;28;20032;-67
2023/03/29 01:04:32;;;;;;;3.08;1.25;;;;;;;5.89;100.00;99092.13;5031451;28;20058;-67
2023/03/29 01:07:03;;;;;;;4.05;1.20;;;;;;;5.89;100.00;99095.69;5031252;28;20422;-66
2023/03/29 01:09:32;;;;;;;1.67;0.88;;;;;;;5.93;100.00;99098.88;5032265;28;20036;-69
2023/03/29 01:12:02;;;;;;;2.20;1.30;;;;;;;5.87;100.00;99103.06;5033518;28;20060;-67
2023/03/29 01:14:37;;;;;;;3.33;1.40;;;;;;;5.83;100.00;99084.75;5037471;28;20065;-67
2023/03/29 01:17:03;;;;;;;3.22;1.20;;;;;;;5.87;100.00;99086.94;5031657;28;20493;-68
2023/03/29 01:19:33;;;;;;;8.48;1.42;;;;;;;5.87;100.00;99076.22;5028917;28;20025;-69
2023/03/29 01:22:56;;;;;;;3.00;1.85;;;;;;;5.87;100.00;99064.63;5023656;28;20032;-69
2023/03/29 01:25:31;;;;;;;3.38;1.40;;;;;;;5.78;100.00;99063.78;4938578;28;20053;-67
2023/03/29 01:28:11;;;;;;;2.80;1.38;;;;;;;5.76;100.00;99056.88;5050951;28;20033;-68
2023/03/29 01:30:50;;;;;;;2.00;1.17;;;;;;;5.76;100.00;99048.84;5031561;28;20177;-69
2023/03/29 01:33:36;;;;;;;2.22;1.20;;;;;;;5.74;100.00;99051.69;5045624;28;20511;-68
2023/03/29 01:36:11;;;;;;;2.95;1.33;;;;;;;5.70;100.00;99050.34;5054546;23;20462;-77
2023/03/29 01:38:53;;;;;;;3.25;1.38;;;;;;;5.59;100.00;99024.66;5032613;28;20022;-78
2023/03/29 01:41:19;;;;;;;3.22;1.38;;;;;;;5.56;100.00;99027.69;5022757;28;20026;-77
2023/03/29 01:43:54;;;;;;;2.10;1.35;;;;;;;5.43;100.00;98995.13;5015611;28;20042;-76
2023/03/29 01:46:51;;;;;;;1.60;1.10;;;;;;;5.59;100.00;99026.50;5015314;28;20022;-77
2023/03/29 01:49:41;;;;;;;2.90;1.10;;;;;;;5.62;100.00;99023.50;5023570;28;20025;-76
2023/03/29 01:52:18;;;;;;;5.28;1.63;;;;;;;5.57;100.00;99026.66;5035535;28;20037;-76
2023/03/29 01:54:54;;;;;;;3.90;1.30;;;;;;;5.49;100.00;99014.06;5007210;28;20083;-76
2023/03/29 01:57:21;;;;;;;3.75;1.20;;;;;;;5.50;100.00;99004.16;5012819;28;20479;-76
2023/03/29 01:59:48;;;;;;;2.80;1.30;;;;;;;5.59;100.00;99019.28;5012531;28;20382;-77
2023/03/29 02:02:16;;;;;;;4.18;1.33;;;;;;;5.47;100.00;98999.97;5025558;28;20053;-77
2023/03/29 02:04:51;;;;;;;1.52;1.10;;;;;;;5.39;100.00;98999.97;5009350;28;20112;-76
2023/03/29 02:07:23;;;;;;;2.35;1.40;;;;;;;5.55;100.00;99015.25;5029579;28;20483;-77
2023/03/29 02:09:51;;;;;;;2.28;1.30;;;;;;;5.44;100.00;98996.81;5013343;28;20071;-77
2023/03/29 02:12:17;;;;;;;1.70;1.40;;;;;;;5.38;100.00;98982.22;5038981;28;20040;-77
2023/03/29 02:14:42;;;;;;;2.60;1.20;;;;;;;5.46;100.00;98997.47;5009950;28;20021;-77
2023/03/29 02:17:18;;;;;;;1.67;1.17;;;;;;;5.56;100.00;99008.06;5014584;28;20025;-76
2023/03/29 02:19:50;;;;;;;5.88;1.50;;;;;;;5.55;100.00;99001.84;5020644;28;20029;-76
2023/03/29 02:22:22;;;;;;;3.47;1.23;;;;;;;5.54;100.00;98991.28;5038767;28;20025;-76
2023/03/29 02:24:51;;;;;;;3.00;1.20;;;;;;;5.42;100.00;98967.47;5016548;28;20021;-76
2023/03/29 02:27:16;;;;;;;2.20;1.13;;;;;;;5.42;100.00;98972.84;5022673;28;20037;-77
2023/03/29 02:29:42;;;;;;;2.22;1.30;;;;;;;5.30;100.00;98944.66;5012143;28;20030;-77
2023/03/29 02:32:26;;;;;;;7.25;1.30;;;;;;;5.29;100.00;98956.34;5029205;28;20063;-78
2023/03/29 02:35:06;;;;;;;2.28;1.10;;;;;;;5.38;100.00;98967.97;5035261;28;20079;-77
2023/03/29 02:37:35;;;;;;;3.78;1.52;;;;;;;5.34;100.00;98962.06;5007594;28;20049;-77
2023/03/29 02:40:11;;;;;;;6.33;1.47;;;;;;;5.44;100.00;98980.69;5014916;28;20028;-76
2023/03/29 02:42:38;;;;;;;3.78;1.30;;;;;;;5.47;100.00;98983.88;5009437;28;20705;-76
2023/03/29 02:45:06;;;;;;;2.50;1.05;;;;;;;5.36;100.00;98964.59;5030904;28;20032;-77
2023/03/29 02:47:36;;;;;;;3.25;1.30;;;;;;;5.47;100.00;98975.00;5031095;28;20033;-78
2023/03/29 02:50:02;;;;;;;2.10;1.20;;;;;;;5.54;100.00;98976.00;5010933;28;20021;-76
2023/03/29 02:52:34;;;;;;;4.60;1.30;;;;;;;5.22;100.00;98933.91;5007629;28;21407;-76
2023/03/29 02:55:04;;;;;;;2.78;1.30;;;;;;;5.34;100.00;98945.13;5008802;28;20032;-77
2023/03/29 02:57:31;;;;;;;2.45;1.60;;;;;;;5.38;100.00;98952.69;5018799;28;20442;-76
2023/03/29 02:59:57;;;;;;;4.75;1.23;;;;;;;5.19;100.00;98920.84;5033304;28;20467;-76
2023/03/29 03:02:26;;;;;;;2.42;1.27;;;;;;;5.42;100.00;98951.38;5014979;28;20034;-76
2023/03/29 03:04:52;;;;;;;3.28;1.40;;;;;;;5.39;100.00;98938.25;5036109;28;20048;-77
2023/03/29 03:07:18;;;;;;;2.30;1.10;;;;;;;5.45;100.00;98929.56;5007239;28;20029;-77
2023/03/29 03:09:44;;;;;;;3.92;1.20;;;;;;;5.68;100.00;98923.50;5028604;28;20022;-76
2023/03/29 03:12:09;;;;;;;3.00;1.23;;;;;;;5.53;100.00;98892.97;5016251;28;20033;-77
2023/03/29 03:14:35;;;;;;;2.08;1.25;;;;;;;5.47;100.00;98887.28;5026345;28;20025;-77
2023/03/29 03:17:00;;;;;;;2.60;1.30;;;;;;;5.56;100.00;98906.91;5034806;28;20018;-76
2023/03/29 03:19:25;;;;;;;3.38;1.38;;;;;;;5.63;100.00;98909.75;5011920;28;20025;-77
2023/03/29 03:21:50;;;;;;;1.85;1.25;;;;;;;5.45;100.00;98889.31;5017634;28;20017;-76
2023/03/29 03:24:16;;;;;;;4.13;1.40;;;;;;;5.59;100.00;98903.88;5032606;28;20479;-78
2023/03/29 03:26:45;;;;;;;4.35;1.60;;;;;;;5.41;100.00;98868.34;5030471;28;20025;-76
2023/03/29 03:29:11;;;;;;;3.57;1.57;;;;;;;5.69;100.00;98919.81;5014534;28;20590;-77
2023/03/29 03:31:36;;;;;;;3.45;1.83;;;;;;;5.59;100.00;98889.63;5008207;28;20290;-77
2023/03/29 03:34:01;;;;;;;9.45;1.92;;;;;;;5.58;100.00;98875.38;5014588;28;20180;-76
2023/03/29 03:36:30;;;;;;;2.53;1.40;;;;;;;5.72;100.00;98903.38;5015662;28;20457;-78
2023/03/29 03:38:55;;;;;;;5.38;1.48;;;;;;;5.68;100.00;98893.97;5014143;28;20029;-76
2023/03/29 03:41:21;;;;;;;5.22;1.52;;;;;;;5.78;100.00;98912.59;5009064;28;20029;-77
2023/03/29 03:43:47;;;;;;;7.57;1.73;;;;;;;5.74;100.00;98904.06;5025577;28;20060;-77
2023/03/29 03:46:16;;;;;;;2.60;1.40;;;;;;;5.83;100.00;98918.28;5027308;28;20025;-78
2023/03/29 03:48:42;;;;;;;2.00;1.35;;;;;;;5.83;100.00;98902.19;5029461;28;20394;-76
2023/03/29 03:51:09;;;;;;;2.78;1.30;;;;;;;5.85;100.00;98914.44;5007499;28;20091;-77
2023/03/29 03:53:34;;;;;;;2.88;1.20;;;;;;;5.69;100.00;98893.81;5025558;28;20021;-77
2023/03/29 03:56:01;;;;;;;4.32;1.50;;;;;;;5.90;100.00;98922.81;5019212;28;20124;-79
2023/03/29 03:58:27;;;;;;;2.40;1.23;;;;;;;5.85;100.00;98914.44;5032066;28;20079;-81
2023/03/29 04:00:53;;;;;;;2.50;1.17;;;;;;;5.78;100.00;98908.06;5033366;28;20039;-80
2023/03/29 04:03:19;;;;;;;2.17;1.10;;;;;;;5.76;100.00;98904.69;5016899;28;20036;-80
2023/03/29 04:05:45;;;;;;;4.57;1.30;;;;;;;5.86;100.00;98926.84;5019717;28;20038;-77
2023/03/29 04:08:12;;;;;;;2.42;1.05;;;;;;;5.79;100.00;98901.69;5026939;28;20021;-76
2023/03/29 04:10:38;;;;;;;2.40;1.40;;;;;;;5.65;100.00;98880.91;5015481;28;20018;-77
2023/03/29 04:13:04;;;;;;;2.42;1.52;;;;;;;5.84;100.00;98912.75;5021125;28;20040;-77
2023/03/29 04:15:31;;;;;;;1.30;0.90;;;;;;;5.92;100.00;98931.53;5018067;28;20033;-76
2023/03/29 04:17:57;;;;;;;2.63;1.27;;;;;;;5.81;100.00;98906.88;5027592;28;20498;-80
2023/03/29 04:20:23;;;;;;;6.82;1.42;;;;;;;5.92;100.00;98931.53;5029383;28;20483;-82
2023/03/29 04:22:52;;;;;;;2.13;1.10;;;;;;;5.86;100.00;98910.72;5017310;28;20554;-78
2023/03/29 04:25:18;;;;;;;2.17;1.30;;;;;;;5.67;100.00;98889.63;5018863;28;20022;-78
2023/03/29 04:27:45;;;;;;;2.10;1.05;;;;;;;6.00;100.00;98936.09;5014479;28;20049;-82
2023/03/29 04:30:11;;;;;;;3.55;1.13;;;;;;;6.04;100.00;98932.03;5029785;28;20112;-78
2023/03/29 04:32:37;;;;;;;5.80;1.80;;;;;;;5.90;100.00;98927.34;5006525;28;20040;-78
2023/03/29 04:35:04;;;;;;;6.95;1.10;;;;;;;5.98;100.00;98930.06;5015895;28;20025;-79
2023/03/29 04:37:31;;;;;;;4.20;1.25;;;;;;;6.01;100.00;98931.56;5007264;28;20072;-82
2023/03/29 04:39:59;;;;;;;3.60;1.10;;;;;;;5.84;100.00;98910.09;5035143;28;20491;-80
2023/03/29 04:42:25;;;;;;;1.98;1.20;;;;;;;6.01;100.00;98928.88;5013787;28;20044;-78
2023/03/29 04:44:52;;;;;;;3.00;1.15;;;;;;;6.07;100.00;98942.44;5018798;28;20033;-78
2023/03/29 04:47:18;;;;;;;3.78;1.40;;;;;;;6.12;100.00;98936.56;5020577;23;20025;-64
2023/03/29 04:49:43;;;;;;;6.30;1.30;;;;;;;6.13;100.00;98954.34;4992443;28;20037;-69
2023/03/29 04:52:09;;;;;;;6.07;1.25;;;;;;;6.11;100.00;98951.84;4997199;28;20034;-69
2023/03/29 04:54:36;;;;;;;2.85;1.50;;;;;;;6.09;100.00;98940.44;5011693;28;20465;-69
2023/03/29 04:57:07;;;;;;;2.92;1.50;;;;;;;6.17;100.00;98941.44;4993280;28;20492;-69
2023/03/29 04:59:33;;;;;;;2.03;1.13;;;;;;;6.16;100.00;98951.34;5000774;28;20060;-69
2023/03/29 05:01:59;;;;;;;2.55;1.20;;;;;;;6.13;100.00;98951.66;4993316;28;20119;-70
2023/03/29 05:04:27;;;;;;;10.38;1.70;;;;;;;6.07;100.00;98950.50;4991856;28;20033;-69
2023/03/29 05:06:53;;;;;;;3.25;1.30;;;;;;;6.01;100.00;98950.34;4987025;28;20030;-70
2023/03/29 05:09:18;;;;;;;3.22;1.27;;;;;;;6.09;100.00;98944.97;4993299;28;20188;-70
2023/03/29 05:11:44;;;;;;;2.33;1.27;;;;;;;6.10;100.00;98944.81;5010902;28;20064;-70
2023/03/29 05:14:09;;;;;;;3.15;1.67;;;;;;;6.14;100.00;98945.28;4989189;28;20025;-64
2023/03/29 05:16:36;;;;;;;8.48;1.80;;;;;;;6.16;100.00;98935.22;4980496;28;20034;-65
2023/03/29 05:19:02;;;;;;;3.22;1.73;;;;;;;6.21;100.00;98940.06;4991209;28;20057;-65
2023/03/29 05:21:28;;;;;;;2.83;1.30;;;;;;;6.29;100.00;98948.94;5014764;28;20061;-65
2023/03/29 05:23:54;;;;;;;3.60;1.60;;;;;;;6.27;100.00;98948.28;5003221;28;20029;-65
2023/03/29 05:26:21;;;;;;;7.07;1.80;;;;;;;6.32;100.00;98940.53;4978593;28;20477;-65
2023/03/29 05:28:50;;;;;;;3.25;1.48;;;;;;;6.42;100.00;98944.84;4991716;28;20034;-65
2023/03/29 05:31:16;;;;;;;4.47;1.48;;;;;;;6.52;100.00;98942.81;4984458;28;20399;-64
2023/03/29 05:33:41;;;;;;;5.80;1.60;;;;;;;6.52;100.00;98938.28;4989091;28;20055;-66
2023/03/29 05:36:12;;;;;;;3.63;1.98;;;;;;;6.57;100.00;98932.38;4989824;28;20097;-66
2023/03/29 05:38:38;;;;;;;4.68;1.75;;;;;;;6.61;100.00;98941.78;4990778;28;20477;-68
2023/03/29 05:41:05;;;;;;;4.10;1.65;;;;;;;6.64;100.00;98938.75;4988503;28;20075;-66
2023/03/29 05:43:31;;;;;;;2.67;1.63;;;;;;;6.69;100.00;98932.84;4995805;28;20026;-66
2023/03/29 05:45:56;;;;;;;5.00;1.60;;;;;;;6.75;100.00;98930.28;4992254;28;20022;-66
2023/03/29 05:48:23;;;;;;;2.83;1.60;;;;;;;6.77;100.00;98936.31;5002067;28;20037;-66
2023/03/29 05:50:50;;;;;;;3.70;1.70;;;;;;;6.79;100.00;98939.69;4988905;28;20049;-66
2023/03/29 05:53:16;;;;;;;2.55;1.50;;;;;;;6.86;100.00;98936.28;4989085;28;20026;-66
2023/03/29 05:55:42;;;;;;;6.20;1.70;;;;;;;6.96;100.00;98944.97;4996377;28;20049;-68
2023/03/29 05:58:09;;;;;;;5.50;1.80;;;;;;;6.94;100.00;98944.28;4991733;28;20026;-68
2023/03/29 06:00:38;;;;;;;2.53;1.35;;;;;;;6.98;100.00;98948.31;4981009;28;20030;-68
2023/03/29 06:03:05;;;;;;;2.67;1.48;;;;;;;6.99;100.00;98933.84;5018037;28;20121;-68
2023/03/29 06:05:30;;;;;;;3.63;1.45;;;;;;;7.03;100.00;98940.56;4995272;28;20025;-68
2023/03/29 06:07:56;;;;;;;4.03;1.55;;;;;;;7.06;100.00;98944.75;4992660;28;20022;-68
2023/03/29 06:10:23;;;;;;;4.82;1.50;;;;;;;7.10;100.00;98954.13;4989882;28;20034;-68
2023/03/29 06:12:49;;;;;;;3.75;1.02;;;;;;;7.07;100.00;98957.16;4986804;28;20145;-68
2023/03/29 06:15:15;;;;;;;4.80;1.55;;;;;;;7.11;100.00;98953.97;4989917;28;20027;-68
2023/03/29 06:17:41;;;;;;;3.53;1.55;;;;;;;7.16;100.00;98956.13;5000435;28;20343;-68
2023/03/29 06:20:10;;;;;;;2.38;1.42;;;;;;;7.14;100.00;98958.97;4995719;28;20033;-66
2023/03/29 06:22:40;;;;;;;3.40;1.25;;;;;;;7.13;100.00;98949.25;4998942;28;20057;-64
2023/03/29 06:25:09;;;;;;;2.25;1.40;;;;;;;7.17;100.00;98945.16;4994263;28;20333;-64
2023/03/29 06:27:35;;;;;;;3.45;1.38;;;;;;;7.30;100.00;98947.28;4992185;28;20112;-64
2023/03/29 06:30:03;;;;;;;7.28;1.30;;;;;;;7.39;100.00;98940.81;4999148;28;20092;-63
2023/03/29 06:32:28;;;;;;;4.05;1.33;;;;;;;7.47;100.00;98937.25;4994641;28;20034;-64
2023/03/29 06:34:55;;;;;;;3.45;1.40;;;;;;;7.40;100.00;98944.34;4997454;28;20496;-64
2023/03/29 06:37:22;;;;;;;4.43;2.13;;;;;;;7.42;100.00;98956.63;4992760;28;20456;-63
2023/03/29 06:39:51;;;;;;;3.13;1.73;;;;;;;7.49;100.00;98954.03;5002305;28;20104;-64
2023/03/29 06:42:21;;;;;;;4.30;1.67;;;;;;;7.59;100.00;98957.31;4995816;28;20050;-63
2023/03/29 06:44:48;;;;;;;3.97;1.60;;;;;;;7.68;100.00;98945.47;4994467;28;20030;-64
2023/03/29 06:47:16;;;;;;;4.30;1.85;;;;;;;7.56;100.00;98951.47;4987253;28;20042;-64
2023/03/29 06:49:41;;;;;;;5.32;2.28;;;;;;;7.53;100.00;98949.97;4991048;28;20032;-63
2023/03/29 06:52:07;;;;;;;3.17;1.75;;;;;;;7.57;100.00;98954.00;4989354;28;20038;-64
2023/03/29 06:54:33;;;;;;;7.45;2.00;;;;;;;7.54;100.00;98962.41;4991556;28;20033;-64
2023/03/29 06:57:00;;;;;;;6.43;1.80;;;;;;;7.61;100.00;98963.38;4985714;28;20030;-63
2023/03/29 06:59:25;;;;;;;7.32;2.33;;;;;;;7.65;100.00;98970.06;4994334;28;20022;-64
2023/03/29 07:01:52;;;;;;;5.25;2.08;;;;;;;7.84;100.00;98970.59;5000711;28;20377;-63
2023/03/29 07:04:19;;;;;;;8.88;1.58;;;;;;;8.00;100.00;98973.13;4993074;28;20030;-63
2023/03/29 07:06:47;;;;;;;3.55;1.58;;;;;;;8.13;100.00;98970.66;4998165;28;20025;-64
2023/03/29 07:09:15;;;;;;;6.95;1.80;;;;;;;8.21;100.00;98976.97;4989831;28;20045;-64
2023/03/29 07:11:45;;;;;;;6.35;1.70;;;;;;;8.21;100.00;98976.97;4995721;28;20382;-66
2023/03/29 07:14:10;;;;;;;5.22;1.80;;;;;;;8.12;100.00;98973.50;4996836;28;20037;-66
2023/03/29 07:16:36;;;;;;;3.80;1.75;;;;;;;8.06;100.00;98974.25;4983956;28;20033;-66
2023/03/29 07:19:03;;;;;;;4.53;1.88;;;;;;;8.00;100.00;98977.69;4993926;28;20048;-66
2023/03/29 07:21:29;;;;;;;3.35;1.33;;;;;;;8.17;100.00;98984.59;5003152;28;20389;-66
2023/03/29 07:23:57;;;;;;;7.22;1.45;;;;;;;8.10;100.00;98980.97;5012496;28;20137;-66
2023/03/29 07:26:23;;;;;;;3.67;1.60;;;;;;;8.27;100.00;98981.63;5003565;28;20026;-64
2023/03/29 07:28:49;;;;;;;3.72;1.80;;;;;;;8.37;100.00;98981.38;4999600;28;20029;-64
2023/03/29 07:31:16;;;;;;;9.90;1.75;;;;;;;8.51;100.00;98984.13;4993346;28;20036;-67
2023/03/29 07:33:43;;;;;;;6.68;2.00;;;;;;;8.64;100.00;98977.22;4989432;28;20033;-67
2023/03/29 07:36:09;;;;;;;3.78;1.90;;;;;;;8.73;100.00;98981.50;4991685;28;20091;-67
2023/03/29 07:38:35;;;;;;;3.25;1.80;;;;;;;8.78;100.00;98981.78;4988331;28;20049;-67
2023/03/29 07:41:05;;;;;;;8.05;1.60;;;;;;;8.67;100.00;98988.50;5005636;28;20032;-66
2023/03/29 07:43:31;;;;;;;9.88;2.10;;;;;;;8.81;100.00;98989.50;4994413;28;20539;-64
2023/03/29 07:46:00;;;;;;;4.53;1.95;;;;;;;9.05;100.00;98990.19;4987538;28;20037;-64
2023/03/29 07:48:26;;;;;;;5.18;1.85;;;;;;;9.14;100.00;99000.72;5008920;28;20034;-64
2023/03/29 07:50:51;;;;;;;4.72;1.77;;;;;;;9.39;100.00;98987.69;4986774;28;20095;-66
2023/03/29 07:53:18;;;;;;;2.13;1.35;;;;;;;9.56;100.00;98995.53;4984931;28;20033;-63
2023/03/29 07:55:46;;;;;;;3.83;1.80;;;;;;;9.70;100.00;98988.44;4998693;28;20025;-64
2023/03/29 07:58:13;;;;;;;3.85;1.88;;;;;;;9.79;100.00;98996.19;5000129;28;20026;-64
2023/03/29 08:00:39;;;;;;;7.00;1.58;;;;;;;9.77;100.00;99002.81;4988106;28;20423;-66
2023/03/29 08:03:04;;;;;;;3.75;1.70;;;;;;;9.83;100.00;98992.09;5007863;28;20128;-67
2023/03/29 08:05:30;;;;;;;7.38;1.95;;;;;;;9.88;100.00;99005.03;4990799;28;20030;-66
2023/03/29 08:07:55;;;;;;;4.28;1.60;;;;;;;9.75;100.00;98996.78;4986449;28;20026;-64
2023/03/29 08:10:21;;;;;;;4.88;2.10;;;;;;;9.79;100.00;99000.75;4988976;28;20022;-63
2023/03/29 08:12:48;;;;;;;3.45;2.05;;;;;;;9.74;100.00;99004.03;4996161;28;20022;-64
2023/03/29 08:15:14;;;;;;;4.35;1.70;;;;;;;9.44;100.00;99003.31;4986598;28;20036;-66
2023/03/29 08:17:40;;;;;;;5.05;1.77;;;;;;;9.43;100.00;99005.19;4989806;28;20033;-64
2023/03/29 08:20:08;;;;;;;4.47;1.77;;;;;;;9.48;100.00;99001.06;4984351;28;20131;-64
2023/03/29 08:22:34;;;;;;;3.93;1.43;;;;;;;9.58;100.00;98977.28;4992054;28;20105;-66
2023/03/29 08:25:01;;;;;;;5.25;1.70;;;;;;;9.70;100.00;98994.66;4995219;28;20376;-66
2023/03/29 08:27:27;;;;;;;8.23;1.60;;;;;;;9.84;100.00;98991.03;4993297;28;20120;-66
2023/03/29 08:29:53;;;;;;;7.28;1.60;;;;;;;9.90;100.00;98996.69;4981636;28;20124;-66
2023/03/29 08:32:18;;;;;;;6.32;1.85;;;;;;;10.04;100.00;98995.81;4985576;28;20065;-66
2023/03/29 08:34:44;;;;;;;9.25;2.10;;;;;;;10.05;100.00;98995.59;4987377;28;20033;-66
2023/03/29 08:37:09;;;;;;;3.55;1.70;;;;;;;10.17;100.00;98995.06;4995203;28;20026;-66
2023/03/29 08:39:35;;;;;;;8.13;1.73;;;;;;;10.18;100.00;98992.16;4998614;28;20060;-66
2023/03/29 08:42:06;;;;;;;5.10;2.22;;;;;;;10.17;100.00;98998.59;4994741;28;20029;-66
2023/03/29 08:45:04;;;;;;;9.35;1.77;;;;;;;10.04;100.00;98982.28;5006260;28;20033;-63
2023/03/29 08:47:44;;;;;;;2.55;1.60;;;;;;;10.25;100.00;99000.34;4987535;28;20026;-64
2023/03/29 08:50:12;;;;;;;4.13;1.50;;;;;;;10.40;100.00;98992.13;4990295;28;20026;-63
2023/03/29 08:52:45;;;;;;;4.88;2.42;;;;;;;10.66;100.00;99005.84;4987296;28;20022;-64
2023/03/29 08:55:27;;;;;;;4.53;1.63;;;;;;;10.79;100.00;99010.47;4991507;28;20080;-64
2023/03/29 08:57:54;;;;;;;3.72;1.85;;;;;;;10.79;100.00;98993.41;4991297;28;20120;-64
2023/03/29 09:00:28;;;;;;;3.70;1.88;;;;;;;10.68;100.00;98994.81;4983691;28;20136;-63
2023/03/29 09:02:56;;;;;;;6.38;1.60;;;;;;;10.64;100.00;98996.28;4989106;28;20034;-64
2023/03/29 09:05:42;;;;;;;14.18;2.10;;;;;;;10.53;100.00;98995.78;4989477;28;20029;-64
2023/03/29 09:08:15;;;;;;;3.28;1.48;;;;;;;10.73;100.00;98989.66;4985710;28;20359;-64
2023/03/29 09:10:46;;;;;;;4.38;1.70;;;;;;;10.96;100.00;98989.34;5000123;28;20030;-64
2023/03/29 09:13:38;;;;;;;8.68;1.42;;;;;;;11.08;100.00;98982.34;4995147;28;20029;-64
2023/03/29 09:16:06;;;;;;;7.32;1.58;;;;;;;11.04;100.00;98959.38;4986542;28;20018;-63
2023/03/29 09:19:00;;;;;;;3.17;1.40;;;;;;;11.66;100.00;98986.44;4992193;28;20040;-63
2023/03/29 09:21:50;;;;;;;5.80;1.60;;;;;;;12.02;100.00;98983.38;4991028;28;20032;-64
2023/03/29 09:24:37;;;;;;;6.95;2.05;;;;;;;12.59;97.50;98978.31;4994784;28;20036;-64
2023/03/29 09:27:10;;;;;;;8.95;1.80;;;;;;;13.12;91.42;98975.44;4994117;28;20124;-64
2023/03/29 09:29:51;;;;;;;7.07;1.80;;;;;;;13.12;87.92;98972.72;4987376;28;20096;-64
2023/03/29 09:32:42;;;;;;;5.35;1.50;;;;;;;13.48;84.66;98971.31;4992648;28;20049;-64
2023/03/29 09:35:23;;;;;;;5.57;1.73;;;;;;;13.21;83.17;98970.59;4986990;28;20045;-63
2023/03/29 09:37:51;;;;;;;5.68;1.55;;;;;;;13.42;83.14;98969.47;4986760;28;20085;-64
2023/03/29 09:40:23;;;;;;;13.75;2.08;;;;;;;13.33;83.29;98968.88;4993807;28;20022;-64
2023/03/29 09:42:51;;;;;;;2.47;1.27;;;;;;;13.50;77.45;98980.09;4993368;28;20032;-63
2023/03/29 09:45:17;;;;;;;6.30;1.38;;;;;;;14.07;76.64;98964.63;4998917;28;20026;-64
2023/03/29 09:47:50;;;;;;;4.15;1.35;;;;;;;14.69;70.87;98967.41;4995194;28;20378;-64
2023/03/29 09:50:21;;;;;;;6.35;1.17;;;;;;;15.11;67.23;98962.94;4984332;28;20026;-64
2023/03/29 09:52:48;;;;;;;3.15;1.40;;;;;;;15.90;65.32;98956.59;4993052;28;20022;-64
2023/03/29 09:55:16;;;;;;;2.50;1.20;;;;;;;16.14;62.40;98946.59;4996383;28;20033;-64
2023/03/29 09:57:43;;;;;;;3.58;1.20;;;;;;;16.73;59.92;98949.28;5013382;28;20026;-64
2023/03/29 10:00:10;;;;;;;4.85;1.10;;;;;;;16.52;58.76;98948.00;4991205;28;20034;-66
2023/03/29 10:02:36;;;;;;;6.45;1.02;;;;;;;17.01;59.19;98941.19;4993645;28;20028;-67
2023/03/29 10:05:06;;;;;;;2.85;1.00;;;;;;;16.84;57.28;98945.72;4990742;28;20034;-66
2023/03/29 10:07:47;;;;;;;2.72;1.02;;;;;;;16.56;57.47;98946.47;4996199;28;20052;-67
2023/03/29 10:10:24;;;;;;;3.35;1.00;;;;;;;17.05;57.48;98945.06;4994391;28;20034;-67
2023/03/29 10:12:58;;;;;;;3.33;1.10;;;;;;;17.84;55.25;98949.06;4989288;28;20096;-67
2023/03/29 10:15:27;;;;;;;2.92;0.98;;;;;;;19.01;49.88;98958.25;4996371;28;20063;-67
2023/03/29 10:17:58;;;;;;;3.50;1.02;;;;;;;20.47;49.48;98945.44;4995757;28;20095;-67
2023/03/29 10:20:24;;;;;;;6.93;1.63;;;;;;;20.91;45.47;98947.94;4989706;28;20049;-67
2023/03/29 10:22:58;;;;;;;5.43;1.00;;;;;;;20.63;47.03;98937.31;4992063;28;20473;-67
2023/03/29 10:25:31;;;;;;;1.88;1.02;;;;;;;20.35;45.98;98940.13;4994458;28;20041;-67
2023/03/29 10:28:10;;;;;;;2.83;0.90;;;;;;;20.02;46.22;98933.03;4993787;28;20029;-68
2023/03/29 10:30:37;;;;;;;;;;;;;;;19.68;46.67;98936.00;4990162;28;20354;-67
2023/03/29 10:33:06;;;;;;;1.77;1.00;;;;;;;19.70;46.57;98932.97;4997753;28;19913;-67
2023/03/29 10:35:40;;;;;;;4.40;1.17;;;;;;;19.33;47.62;98932.84;4997255;28;20025;-67
2023/03/29 10:38:12;;;;;;;2.45;1.15;;;;;;;19.56;46.68;98921.56;4988572;28;20041;-66
2023/03/29 10:40:48;;;;;;;4.53;1.17;;;;;;;20.31;46.30;98921.69;4986123;28;20026;-67
2023/03/29 10:43:28;;;;;;;5.95;1.20;;;;;;;21.64;44.96;98917.66;4996255;28;20033;-66
2023/03/29 10:45:56;;;;;;;5.05;1.20;;;;;;;21.20;44.19;98934.56;4986914;28;20111;-64
2023/03/29 10:48:28;;;;;;;3.30;1.13;;;;;;;21.07;43.78;98929.56;4997220;28;20034;-64
2023/03/29 10:50:57;;;;;;;1.95;1.02;;;;;;;21.70;45.21;98910.22;5005877;28;20513;-67
2023/03/29 10:53:33;;;;;;;7.95;1.00;;;;;;;21.38;43.87;98908.53;4998778;28;20034;-66
2023/03/29 10:56:01;;;;;;;7.32;1.42;;;;;;;19.79;46.09;98919.63;5017179;28;20030;-66
2023/03/29 10:58:58;;;;;;;6.07;1.65;;;;;;;20.12;45.93;98911.13;4991917;28;20037;-65
2023/03/29 11:01:44;;;;;;;3.40;1.30;;;;;;;19.08;48.15;98923.25;4987979;28;20030;-65
2023/03/29 11:04:39;;;;;;;2.90;1.20;;;;;;;18.95;48.41;98921.72;4983100;28;20041;-64
2023/03/29 11:07:42;;;;;;;4.18;1.50;;;;;;;17.75;50.90;98913.84;5013018;28;20092;-64
2023/03/29 11:10:10;;;;;;;1.83;1.08;;;;;;;16.98;52.78;98906.13;4987119;28;20069;-69
2023/03/29 11:12:48;;;;;;;5.32;1.58;;;;;;;16.22;54.73;98897.09;4993716;28;20030;-66
2023/03/29 11:15:21;;;;;;;2.75;1.35;;;;;;;17.37;54.77;98887.22;4991101;28;20061;-62
2023/03/29 11:17:49;;;;;;;3.63;1.55;;;;;;;18.12;53.01;98883.28;4989241;28;20040;-62
2023/03/29 11:20:27;;;;;;;2.10;1.25;;;;;;;18.92;51.27;98872.88;4988617;28;20537;-62
2023/03/29 11:23:12;;;;;;;2.72;1.25;;;;;;;19.15;50.92;98870.94;4998967;28;20030;-62
2023/03/29 11:25:55;;;;;;;3.35;1.70;;;;;;;19.29;50.52;98876.84;4991222;28;20030;-66
2023/03/29 11:28:37;;;;;;;5.03;1.30;;;;;;;20.07;49.09;98877.31;4996322;28;20112;-66
2023/03/29 11:31:06;;;;;;;3.22;1.30;;;;;;;20.82;47.61;98882.69;4988798;28;20038;-67
2023/03/29 11:33:39;;;;;;;3.28;1.45;;;;;;;21.43;46.44;98867.25;5018350;23;20046;-74
2023/03/29 11:36:27;;;;;;;4.05;1.38;;;;;;;21.94;45.50;98871.13;5029305;28;20116;-76
2023/03/29 11:39:14;;;;;;;4.28;1.30;;;;;;;21.24;45.18;98874.31;5010391;28;20273;-78
2023/03/29 11:41:45;;;;;;;2.63;1.33;;;;;;;20.12;46.72;98858.09;5024198;28;20040;-73
2023/03/29 11:44:26;;;;;;;2.85;1.23;;;;;;;19.17;47.87;98874.25;5024463;28;20474;-73
2023/03/29 11:47:15;;;;;;;2.40;1.35;;;;;;;19.41;49.37;98861.91;5029100;28;20067;-73